Time;durP1;ratioP1;P1;durP2;ratioP2;P2;SDS_P1;SDS_P2;PMS_P1;PMS_P2;Temp;Humidity;BMP_temperature;BMP_pressure;BME280_temperature;BME280_humidity;BME280_pressure;Samples;Min_cycle;Max_cycle;Signal;HPM_P1;HPM_P2
2024/03/30 00:00:55;;;;;;;29.33;27.73;;;;;;;8.60;100.00;101194.50;5047967;28;20067;-72
2024/03/30 00:03:22;;;;;;;30.45;28.60;;;;;;;8.65;100.00;101203.56;5043112;28;20046;-72
2024/03/30 00:05:58;;;;;;;30.55;28.70;;;;;;;8.88;100.00;101197.34;5043738;28;20087;-73
2024/03/30 00:08:26;;;;;;;33.00;31.10;;;;;;;9.06;100.00;101204.94;5037562;28;20060;-71
2024/03/30 00:10:58;;;;;;;31.20;29.40;;;;;;;9.11;100.00;101197.25;5047266;28;20052;-72
2024/03/30 00:13:25;;;;;;;29.42;27.73;;;;;;;8.79;100.00;101190.50;5046442;28;20049;-71
2024/03/30 00:15:51;;;;;;;31.00;29.20;;;;;;;8.70;100.00;101193.22;5038041;28;20103;-72
2024/03/30 00:18:20;;;;;;;29.08;27.45;;;;;;;8.92;100.00;101194.13;5046934;28;20502;-72
2024/03/30 00:20:50;;;;;;;31.30;29.60;;;;;;;9.10;100.00;101191.13;5046139;28;20130;-72
2024/03/30 00:23:17;;;;;;;29.17;27.48;;;;;;;9.29;100.00;101184.44;5043098;28;20049;-72
2024/03/30 00:25:52;;;;;;;30.67;28.98;;;;;;;9.17;100.00;101183.25;5030168;28;20763;-72
2024/03/30 00:28:19;;;;;;;30.50;28.88;;;;;;;9.55;100.00;101180.44;5048367;28;20048;-73
2024/03/30 00:30:45;;;;;;;31.60;29.90;;;;;;;9.78;100.00;101181.09;5048045;28;20057;-73
2024/03/30 00:33:12;;;;;;;31.67;29.98;;;;;;;9.69;100.00;101179.56;5047711;28;20110;-73
2024/03/30 00:35:41;;;;;;;30.27;28.48;;;;;;;9.88;100.00;101190.56;5047726;28;20126;-72
2024/03/30 00:38:14;;;;;;;30.23;28.52;;;;;;;9.90;100.00;101181.41;5047088;28;20085;-73
2024/03/30 00:40:40;;;;;;;30.33;28.63;;;;;;;9.73;100.00;101175.50;5033072;28;20049;-73
2024/03/30 00:43:08;;;;;;;33.00;31.20;;;;;;;9.75;100.00;101175.34;5029741;28;20061;-72
2024/03/30 00:45:36;;;;;;;31.58;29.90;;;;;;;9.60;100.00;101172.75;5046775;28;20064;-72
2024/03/30 00:48:04;;;;;;;30.77;29.08;;;;;;;9.74;100.00;101168.38;5046253;28;20103;-72
2024/03/30 00:50:30;;;;;;;31.13;29.42;;;;;;;9.46;100.00;101165.63;5046750;28;20106;-73
2024/03/30 00:52:59;;;;;;;28.67;27.08;;;;;;;9.27;100.00;101167.88;5042485;28;20057;-72
2024/03/30 00:55:25;;;;;;;30.60;28.90;;;;;;;9.45;100.00;101162.19;5042778;28;20590;-72
2024/03/30 00:57:52;;;;;;;30.67;29.00;;;;;;;9.51;100.00;101161.41;5043468;28;20080;-72
2024/03/30 01:00:18;;;;;;;30.23;28.73;;;;;;;9.39;100.00;101160.28;5046209;28;20049;-72
2024/03/30 01:02:46;;;;;;;29.55;27.85;;;;;;;9.48;100.00;101172.41;5046824;28;20053;-72
2024/03/30 01:05:12;;;;;;;28.38;26.88;;;;;;;9.36;100.00;101161.47;5046245;28;20535;-71
2024/03/30 01:07:41;;;;;;;26.42;24.95;;;;;;;8.97;100.00;101167.09;5045867;28;20045;-71
2024/03/30 01:10:10;;;;;;;39.38;29.00;;;;;;;9.31;100.00;101157.72;5051351;28;20056;-72
2024/03/30 01:12:38;;;;;;;29.63;27.92;;;;;;;8.84;100.00;101165.13;5045457;28;20097;-72
2024/03/30 01:15:05;;;;;;;28.98;27.38;;;;;;;8.66;100.00;101170.78;5049837;28;20428;-73
2024/03/30 01:17:34;;;;;;;30.95;29.25;;;;;;;8.93;100.00;101165.84;5042108;28;20154;-73
2024/03/30 01:20:01;;;;;;;31.67;29.88;;;;;;;9.13;100.00;101164.25;5051196;28;20060;-72
2024/03/30 01:22:28;;;;;;;28.60;27.10;;;;;;;9.20;100.00;101163.50;5050300;28;20531;-72
2024/03/30 01:24:55;;;;;;;28.80;27.20;;;;;;;9.05;100.00;101177.63;5050582;28;20566;-74
2024/03/30 01:27:27;;;;;;;30.67;29.08;;;;;;;9.16;100.00;101163.88;5048615;28;20041;-73
2024/03/30 01:29:55;;;;;;;30.90;29.10;;;;;;;9.12;100.00;101159.97;5042961;28;20083;-72
2024/03/30 01:32:23;;;;;;;30.50;28.83;;;;;;;8.74;100.00;101161.09;5044297;28;20096;-72
2024/03/30 01:34:50;;;;;;;31.08;29.27;;;;;;;8.84;100.00;101157.16;5051204;28;20103;-72
2024/03/30 01:37:17;;;;;;;29.75;28.05;;;;;;;8.85;100.00;101158.81;5050532;28;20480;-73
2024/03/30 01:39:44;;;;;;;28.75;27.02;;;;;;;8.79;100.00;101166.66;5048048;28;20084;-72
2024/03/30 01:42:11;;;;;;;29.02;27.13;;;;;;;8.88;100.00;101166.38;5045633;28;20049;-71
2024/03/30 01:44:39;;;;;;;28.30;26.60;;;;;;;8.73;100.00;101164.75;5045338;28;20049;-71
2024/03/30 01:47:06;;;;;;;28.70;27.00;;;;;;;8.24;100.00;101181.91;5049871;28;20044;-72
2024/03/30 01:49:33;;;;;;;30.55;28.75;;;;;;;8.79;100.00;101172.78;5051710;28;20082;-72
2024/03/30 01:52:03;;;;;;;31.40;29.50;;;;;;;8.98;100.00;101179.34;5050296;28;20045;-72
2024/03/30 01:54:30;;;;;;;31.38;29.58;;;;;;;8.69;100.00;101175.69;5048619;28;20414;-72
2024/03/30 01:57:00;;;;;;;30.58;28.75;;;;;;;8.83;100.00;101179.34;5047699;28;20060;-72
2024/03/30 01:59:26;;;;;;;31.45;29.65;;;;;;;9.00;100.00;101177.34;5050136;28;20053;-72
2024/03/30 02:01:56;;;;;;;30.13;28.42;;;;;;;9.10;100.00;101179.69;5049340;28;20088;-72
2024/03/30 02:04:24;;;;;;;30.50;28.77;;;;;;;8.64;100.00;101180.72;5049159;28;20068;-72
2024/03/30 02:06:52;;;;;;;28.85;27.20;;;;;;;8.96;100.00;101176.06;5050190;28;20049;-73
2024/03/30 02:09:18;;;;;;;30.65;28.85;;;;;;;9.00;100.00;101169.38;5044328;28;20055;-73
2024/03/30 02:11:51;;;;;;;32.92;31.02;;;;;;;8.64;100.00;101164.00;5050254;28;20057;-72
2024/03/30 02:14:18;;;;;;;33.03;31.10;;;;;;;8.22;100.00;101181.25;5050360;28;20122;-73
2024/03/30 02:16:47;;;;;;;35.78;33.78;;;;;;;8.58;100.00;101165.56;5049014;28;20135;-72
2024/03/30 02:19:19;;;;;;;34.65;32.67;;;;;;;8.93;100.00;101166.66;5048276;28;20103;-73
2024/03/30 02:21:46;;;;;;;28.25;26.65;;;;;;;8.17;100.00;101173.88;5041591;28;20500;-73
2024/03/30 02:24:14;;;;;;;35.20;33.30;;;;;;;8.49;100.00;101171.94;5049806;28;20512;-73
2024/03/30 02:26:41;;;;;;;35.40;33.50;;;;;;;8.30;100.00;101172.44;5047229;28;20049;-73
2024/03/30 02:29:10;;;;;;;28.48;26.98;;;;;;;8.57;100.00;101173.69;5049168;28;20114;-72
2024/03/30 02:31:37;;;;;;;31.70;30.00;;;;;;;8.30;100.00;101177.72;5049638;28;20057;-72
2024/03/30 02:34:04;;;;;;;29.65;28.05;;;;;;;8.19;100.00;101166.56;5045276;28;20514;-72
2024/03/30 02:36:33;;;;;;;30.92;29.33;;;;;;;8.35;100.00;101170.91;5048334;28;20053;-72
2024/03/30 02:38:59;;;;;;;39.47;36.92;;;;;;;8.18;100.00;101178.16;5048383;28;20041;-72
2024/03/30 02:41:28;;;;;;;33.90;32.20;;;;;;;8.49;100.00;101164.81;5042531;28;20057;-71
2024/03/30 02:43:54;;;;;;;28.45;26.75;;;;;;;8.64;100.00;101162.19;5048132;28;20136;-72
2024/03/30 02:46:21;;;;;;;31.00;29.30;;;;;;;8.19;100.00;101163.91;5046069;28;20057;-72
2024/03/30 02:48:47;;;;;;;30.85;29.25;;;;;;;8.04;100.00;101171.00;5048542;28;20125;-72
2024/03/30 02:51:14;;;;;;;32.65;30.95;;;;;;;8.44;100.00;101161.06;5042670;28;20041;-73
2024/03/30 02:53:41;;;;;;;35.40;32.95;;;;;;;8.40;100.00;101159.78;5047324;28;20106;-72
2024/03/30 02:56:08;;;;;;;32.17;30.38;;;;;;;8.53;100.00;101164.44;5049155;28;20053;-72
2024/03/30 02:58:35;;;;;;;31.90;30.20;;;;;;;8.41;100.00;101164.06;5048824;28;20136;-71
2024/03/30 03:01:02;;;;;;;38.78;36.78;;;;;;;8.48;100.00;101173.78;5045506;28;20049;-72
2024/03/30 03:03:29;;;;;;;35.33;33.45;;;;;;;8.64;100.00;101170.13;5047765;28;20065;-72
2024/03/30 03:05:57;;;;;;;34.47;32.67;;;;;;;8.73;100.00;101170.84;5048013;28;20604;-72
2024/03/30 03:08:26;;;;;;;44.63;42.33;;;;;;;8.77;100.00;101173.97;5043829;28;20057;-72
2024/03/30 03:10:53;;;;;;;38.22;36.22;;;;;;;8.41;100.00;101177.31;5047794;28;20142;-72
2024/03/30 03:13:19;;;;;;;42.92;40.63;;;;;;;8.31;100.00;101180.19;5047344;28;20134;-72
2024/03/30 03:15:48;;;;;;;40.13;38.13;;;;;;;8.42;100.00;101176.31;5047809;28;20061;-73
2024/03/30 03:18:14;;;;;;;37.88;35.97;;;;;;;8.64;100.00;101178.06;5046783;28;20285;-72
2024/03/30 03:20:43;;;;;;;45.88;43.58;;;;;;;8.83;100.00;101174.03;5048165;28;20056;-72
2024/03/30 03:23:09;;;;;;;41.08;38.95;;;;;;;8.89;100.00;101181.25;5043366;28;20535;-72
2024/03/30 03:25:36;;;;;;;35.40;33.50;;;;;;;9.04;100.00;101177.78;5047524;28;20077;-72
2024/03/30 03:28:02;;;;;;;37.50;35.60;;;;;;;8.74;100.00;101182.25;5047661;28;20179;-73
2024/03/30 03:30:32;;;;;;;37.88;35.85;;;;;;;8.63;100.00;101179.06;5047092;28;20056;-71
2024/03/30 03:33:00;;;;;;;39.72;37.63;;;;;;;8.43;100.00;101178.78;5036508;28;20152;-72
2024/03/30 03:35:27;;;;;;;37.95;35.85;;;;;;;8.08;100.00;101174.94;5044772;28;20053;-71
2024/03/30 03:37:53;;;;;;;35.97;34.17;;;;;;;8.07;100.00;101178.56;5039135;28;20057;-72
2024/03/30 03:40:20;;;;;;;37.55;35.40;;;;;;;8.18;100.00;101178.16;5041107;28;20107;-71
2024/03/30 03:42:46;;;;;;;30.63;29.02;;;;;;;8.14;100.00;101178.66;5043771;28;20493;-72
2024/03/30 03:45:15;;;;;;;30.90;29.30;;;;;;;8.29;100.00;101184.84;5046926;28;20053;-72
2024/03/30 03:47:41;;;;;;;34.03;32.28;;;;;;;8.12;100.00;101186.81;5047120;28;20061;-73
2024/03/30 03:50:10;;;;;;;31.90;30.20;;;;;;;8.39;100.00;101187.28;5048192;28;20114;-72
2024/03/30 03:52:36;;;;;;;33.78;32.08;;;;;;;8.96;100.00;101181.38;5046238;28;20045;-72
2024/03/30 03:55:06;;;;;;;29.92;28.33;;;;;;;8.36;100.00;101188.41;5046765;28;20053;-73
2024/03/30 03:57:32;;;;;;;29.10;27.50;;;;;;;9.08;100.00;101187.84;5047229;28;20552;-72
2024/03/30 03:59:59;;;;;;;33.20;31.40;;;;;;;9.31;100.00;101185.03;5046252;28;20136;-73
2024/03/30 04:02:25;;;;;;;29.83;28.13;;;;;;;9.04;100.00;101189.19;5047612;28;20053;-73
2024/03/30 04:04:52;;;;;;;29.30;27.60;;;;;;;8.96;100.00;101189.31;5047374;28;20049;-72
2024/03/30 04:07:20;;;;;;;29.02;27.42;;;;;;;9.01;100.00;101184.25;5047653;28;20049;-73
2024/03/30 04:09:47;;;;;;;29.85;28.15;;;;;;;8.90;100.00;101187.41;5040574;28;20107;-72
2024/03/30 04:12:13;;;;;;;31.70;29.75;;;;;;;8.72;100.00;101190.41;5046963;28;20064;-72
2024/03/30 04:14:41;;;;;;;29.48;27.77;;;;;;;9.25;100.00;101191.09;5046387;28;20052;-72
2024/03/30 04:17:08;;;;;;;28.60;26.90;;;;;;;8.73;100.00;101191.22;5047108;28;20048;-73
2024/03/30 04:19:35;;;;;;;25.75;24.15;;;;;;;9.22;100.00;101191.47;5047383;28;20060;-72
2024/03/30 04:22:02;;;;;;;27.13;25.52;;;;;;;9.12;100.00;101194.41;5046696;28;20053;-72
2024/03/30 04:24:31;;;;;;;26.60;25.00;;;;;;;9.48;100.00;101198.09;5045168;28;20077;-72
2024/03/30 04:26:58;;;;;;;27.95;26.42;;;;;;;9.78;100.00;101201.50;5046764;28;20049;-72
2024/03/30 04:29:31;;;;;;;27.20;25.60;;;;;;;9.11;100.00;101195.44;5045895;28;20128;-73
2024/03/30 04:31:57;;;;;;;26.25;24.75;;;;;;;9.72;100.00;101202.25;5047195;28;20049;-73
2024/03/30 04:34:24;;;;;;;26.30;24.80;;;;;;;10.05;100.00;101198.06;5047772;28;20045;-73
2024/03/30 04:36:53;;;;;;;27.05;25.45;;;;;;;9.83;100.00;101197.25;5047363;28;20053;-73
2024/03/30 04:39:22;;;;;;;28.83;27.13;;;;;;;9.66;100.00;101190.53;5047541;28;20045;-73
2024/03/30 04:41:51;;;;;;;30.52;28.73;;;;;;;9.69;100.00;101195.47;5043864;28;20061;-73
2024/03/30 04:44:18;;;;;;;29.05;27.35;;;;;;;9.49;100.00;101194.44;5051462;28;20053;-74
2024/03/30 04:46:45;;;;;;;27.92;26.25;;;;;;;9.67;100.00;101191.38;5044611;28;20132;-73
2024/03/30 04:49:12;;;;;;;29.63;27.92;;;;;;;9.57;100.00;101189.84;5051657;28;20049;-74
2024/03/30 04:51:38;;;;;;;27.40;25.80;;;;;;;9.64;100.00;101188.06;5050877;28;20057;-73
2024/03/30 04:54:05;;;;;;;27.98;26.38;;;;;;;10.03;100.00;101189.47;5050540;28;20114;-73
2024/03/30 04:56:31;;;;;;;28.63;27.00;;;;;;;9.88;100.00;101198.50;5046841;28;20045;-73
2024/03/30 04:59:00;;;;;;;29.38;27.67;;;;;;;10.33;100.00;101192.00;5050710;28;20070;-73
2024/03/30 05:01:26;;;;;;;27.02;25.42;;;;;;;10.54;100.00;101194.59;5045884;28;20045;-73
2024/03/30 05:03:53;;;;;;;26.42;24.85;;;;;;;10.74;100.00;101183.28;5044813;28;20136;-72
2024/03/30 05:06:19;;;;;;;26.33;24.75;;;;;;;10.76;100.00;101189.22;5046498;28;20065;-72
2024/03/30 05:08:46;;;;;;;27.83;26.13;;;;;;;10.89;100.00;101180.50;5049193;28;20064;-72
2024/03/30 05:11:14;;;;;;;27.15;25.55;;;;;;;11.04;100.00;101189.16;5050569;28;20405;-73
2024/03/30 05:13:41;;;;;;;25.65;24.05;;;;;;;11.17;100.00;101183.09;5050414;28;20053;-73
2024/03/30 05:16:09;;;;;;;27.15;25.30;;;;;;;11.15;100.00;101182.47;5049744;28;22356;-73
2024/03/30 05:18:36;;;;;;;27.05;25.40;;;;;;;11.26;100.00;101176.59;5049751;28;20060;-72
2024/03/30 05:21:03;;;;;;;28.65;26.88;;;;;;;11.39;100.00;101173.16;5050362;28;20720;-72
2024/03/30 05:23:31;;;;;;;26.35;24.75;;;;;;;11.47;100.00;101175.63;5042036;28;20064;-72
2024/03/30 05:25:58;;;;;;;26.88;25.27;;;;;;;11.60;100.00;101174.84;5047390;28;20118;-72
2024/03/30 05:28:28;;;;;;;26.95;25.35;;;;;;;11.73;100.00;101172.19;5049749;28;20041;-72
2024/03/30 05:30:55;;;;;;;26.70;25.20;;;;;;;11.75;100.00;101172.00;5050434;28;20045;-71
2024/03/30 05:33:27;;;;;;;25.48;23.98;;;;;;;11.94;100.00;101178.41;5050662;28;20053;-72
2024/03/30 05:35:54;;;;;;;27.92;26.00;;;;;;;12.06;100.00;101174.09;5051642;28;20045;-72
2024/03/30 05:38:23;;;;;;;25.45;24.05;;;;;;;12.10;100.00;101175.31;5050638;28;20138;-72
2024/03/30 05:40:50;;;;;;;30.52;28.75;;;;;;;12.16;100.00;101166.53;5050751;28;20114;-72
2024/03/30 05:43:17;;;;;;;27.13;25.52;;;;;;;12.24;100.00;101165.50;5045974;28;20915;-72
2024/03/30 05:45:47;;;;;;;24.70;23.35;;;;;;;12.32;100.00;101165.31;5049504;28;20106;-72
2024/03/30 05:48:14;;;;;;;25.73;24.23;;;;;;;12.45;100.00;101157.28;5047406;28;20049;-71
2024/03/30 05:50:42;;;;;;;28.33;26.73;;;;;;;12.59;100.00;101166.91;5049795;28;20475;-71
2024/03/30 05:53:15;;;;;;;27.95;26.45;;;;;;;12.81;100.00;101163.97;5050008;28;20135;-71
2024/03/30 05:55:41;;;;;;;26.88;25.38;;;;;;;12.89;100.00;101158.44;5049763;28;20052;-72
2024/03/30 05:58:09;;;;;;;27.17;25.58;;;;;;;12.86;100.00;101163.34;5049330;28;20049;-72
2024/03/30 06:00:36;;;;;;;26.80;25.20;;;;;;;12.87;100.00;101165.00;5039046;28;20430;-72
2024/03/30 06:03:03;;;;;;;26.48;24.88;;;;;;;13.17;100.00;101160.78;5050654;28;20516;-72
2024/03/30 06:05:30;;;;;;;28.50;26.80;;;;;;;13.39;100.00;101157.81;5039785;28;20049;-72
2024/03/30 06:07:59;;;;;;;30.40;28.60;;;;;;;13.61;100.00;101153.78;5048795;28;20060;-72
2024/03/30 06:10:25;;;;;;;27.77;26.17;;;;;;;13.83;100.00;101156.94;5048944;28;20053;-72
2024/03/30 06:12:52;;;;;;;28.83;27.13;;;;;;;14.02;100.00;101160.47;5049338;28;20132;-72
2024/03/30 06:15:18;;;;;;;27.10;25.50;;;;;;;14.20;100.00;101152.50;5037023;28;20056;-72
2024/03/30 06:17:46;;;;;;;27.00;25.40;;;;;;;14.38;100.00;101150.91;5046385;28;20107;-72
2024/03/30 06:20:15;;;;;;;27.40;25.60;;;;;;;14.65;100.00;101152.31;5046569;28;20061;-72
2024/03/30 06:22:41;;;;;;;25.77;24.27;;;;;;;14.85;100.00;101143.25;5049634;28;20064;-72
2024/03/30 06:25:15;;;;;;;26.05;24.45;;;;;;;15.09;100.00;101145.00;5049560;28;20052;-72
2024/03/30 06:27:41;;;;;;;24.60;23.00;;;;;;;15.23;100.00;101147.53;5049430;28;20082;-72
2024/03/30 06:30:11;;;;;;;27.63;25.92;;;;;;;15.43;100.00;101140.03;5049645;28;20087;-72
2024/03/30 06:32:36;;;;;;;28.80;26.60;;;;;;;15.74;100.00;101141.66;5049997;28;20463;-72
2024/03/30 06:35:05;;;;;;;28.08;26.30;;;;;;;15.99;100.00;101143.34;5049602;28;20052;-72
2024/03/30 06:37:31;;;;;;;28.08;26.38;;;;;;;16.22;100.00;101143.34;5049169;28;20044;-72
2024/03/30 06:45:29;;;;;;;27.92;26.13;;;;;;;16.81;100.00;101137.13;5049046;28;20224;-72
2024/03/30 06:47:56;;;;;;;28.98;27.17;;;;;;;16.94;100.00;101142.22;5048145;28;20056;-72
2024/03/30 06:50:23;;;;;;;29.50;27.60;;;;;;;17.27;100.00;101129.97;5049050;28;20087;-71
2024/03/30 06:52:50;;;;;;;30.15;27.92;;;;;;;17.58;100.00;101137.53;5044796;28;20909;-72
2024/03/30 06:55:16;;;;;;;29.45;27.55;;;;;;;17.82;100.00;101135.56;5045970;28;20052;-72
2024/03/30 06:57:45;;;;;;;29.00;27.08;;;;;;;18.19;100.00;101132.34;5032207;28;20590;-72
2024/03/30 07:00:13;;;;;;;32.88;30.50;;;;;;;18.33;100.00;101132.81;5048680;28;20118;-72
2024/03/30 07:02:39;;;;;;;32.22;30.02;;;;;;;18.51;100.00;101126.34;5048069;28;20061;-72
2024/03/30 07:05:07;;;;;;;37.20;33.47;;;;;;;18.55;100.00;101130.19;5047166;28;20453;-72
2024/03/30 07:07:33;;;;;;;32.00;29.75;;;;;;;18.63;100.00;101127.03;5034847;28;20211;-71
2024/03/30 07:10:00;;;;;;;31.83;29.73;;;;;;;18.69;100.00;101119.84;5042642;28;20087;-72
2024/03/30 07:12:26;;;;;;;33.30;31.02;;;;;;;18.72;100.00;101125.53;5048225;28;20053;-72
2024/03/30 07:14:55;;;;;;;33.70;31.23;;;;;;;18.89;100.00;101120.13;5048483;28;20044;-72
2024/03/30 07:17:21;;;;;;;45.90;32.30;;;;;;;19.45;100.00;101114.50;5047878;28;20479;-72
2024/03/30 07:19:48;;;;;;;33.05;30.75;;;;;;;19.40;100.00;101117.19;5047724;28;20091;-72
2024/03/30 07:22:14;;;;;;;34.70;32.38;;;;;;;18.18;100.00;101109.22;5048060;28;20106;-72
2024/03/30 07:24:41;;;;;;;33.10;30.80;;;;;;;18.05;100.00;101120.31;5048268;28;20516;-73
2024/03/30 07:27:07;;;;;;;32.65;30.45;;;;;;;18.99;100.00;101112.16;5047124;28;20787;-73
2024/03/30 07:29:34;;;;;;;31.00;28.80;;;;;;;19.22;100.00;101108.38;5041606;28;20048;-72
2024/03/30 07:32:01;;;;;;;30.23;28.23;;;;;;;19.31;100.00;101111.44;5048621;28;20142;-72
2024/03/30 07:34:28;;;;;;;30.92;28.90;;;;;;;20.05;100.00;101113.41;5033936;28;20053;-73
2024/03/30 07:36:55;;;;;;;31.88;29.77;;;;;;;20.21;100.00;101105.41;5049254;28;20068;-72
2024/03/30 07:39:22;;;;;;;30.55;28.42;;;;;;;20.89;100.00;101111.69;5048792;28;20084;-73
2024/03/30 07:41:48;;;;;;;32.67;30.10;;;;;;;20.80;100.00;101100.59;5049650;28;20049;-71
2024/03/30 07:44:18;;;;;;;32.85;30.75;;;;;;;20.11;100.00;101101.59;5044496;28;20502;-72
2024/03/30 07:46:44;;;;;;;32.03;29.85;;;;;;;19.47;100.00;101096.22;5048913;28;20550;-73
2024/03/30 07:49:13;;;;;;;32.80;30.60;;;;;;;20.43;100.00;101098.00;5048616;28;20131;-72
2024/03/30 07:51:39;;;;;;;31.30;29.20;;;;;;;19.60;100.00;101100.38;5044584;28;20049;-72
2024/03/30 07:54:06;;;;;;;28.80;26.70;;;;;;;20.18;100.00;101101.34;5048978;28;20075;-74
2024/03/30 07:56:32;;;;;;;32.33;29.00;;;;;;;19.55;100.00;101101.16;5048079;28;20099;-71
2024/03/30 07:59:01;;;;;;;56.88;53.67;;;;;;;19.94;100.00;101100.94;5048282;28;20041;-72
2024/03/30 08:01:29;;;;;;;29.85;27.85;;;;;;;20.80;100.00;101102.50;5048429;28;20060;-71
2024/03/30 08:03:58;;;;;;;35.13;31.85;;;;;;;20.15;100.00;101093.78;5048507;28;20167;-73
2024/03/30 08:06:26;;;;;;;36.67;34.28;;;;;;;19.71;100.00;101099.41;5041305;28;20063;-72
2024/03/30 08:08:55;;;;;;;36.20;33.80;;;;;;;18.91;100.00;101101.03;5048240;28;20049;-72
2024/03/30 08:11:21;;;;;;;35.72;32.40;;;;;;;20.65;100.00;101105.13;5048675;28;20508;-72
2024/03/30 08:13:48;;;;;;;38.17;35.72;;;;;;;19.89;100.00;101109.00;5048924;28;20056;-71
2024/03/30 08:16:14;;;;;;;33.10;30.90;;;;;;;19.38;100.00;101101.25;5042191;28;20075;-71
2024/03/30 08:18:41;;;;;;;35.13;32.63;;;;;;;19.42;100.00;101096.97;5047103;28;20057;-71
2024/03/30 08:21:07;;;;;;;30.10;28.00;;;;;;;19.14;100.00;101105.31;5048208;28;20573;-71
2024/03/30 08:23:36;;;;;;;30.25;28.15;;;;;;;19.16;100.00;101098.63;5046897;28;20049;-72
2024/03/30 08:26:02;;;;;;;29.50;27.50;;;;;;;20.62;100.00;101092.97;5039739;28;20049;-72
2024/03/30 08:28:29;;;;;;;33.17;30.88;;;;;;;23.85;96.49;101093.06;5047622;28;20055;-72
2024/03/30 08:30:55;;;;;;;33.85;31.45;;;;;;;24.00;82.60;101087.50;5047237;28;20049;-71
2024/03/30 08:33:22;;;;;;;38.08;35.58;;;;;;;21.66;100.00;101087.53;5046874;28;20119;-72
2024/03/30 08:35:52;;;;;;;35.28;32.88;;;;;;;20.90;100.00;101080.91;5048459;28;20475;-71
2024/03/30 08:38:20;;;;;;;40.08;37.47;;;;;;;20.04;100.00;101084.03;5047044;28;20068;-71
2024/03/30 08:40:48;;;;;;;38.60;35.90;;;;;;;23.57;95.68;101078.34;5047706;28;20057;-72
2024/03/30 08:43:15;;;;;;;54.58;51.30;;;;;;;22.58;92.34;101082.75;5042227;28;20484;-71
2024/03/30 08:45:41;;;;;;;32.20;30.00;;;;;;;21.34;100.00;101085.88;5047826;28;20102;-72
2024/03/30 08:48:13;;;;;;;29.95;27.75;;;;;;;23.22;96.77;101080.25;5046434;28;20102;-72
2024/03/30 08:50:39;;;;;;;34.60;32.20;;;;;;;21.65;100.00;101083.22;5047504;28;20044;-72
2024/03/30 08:53:07;;;;;;;36.55;34.05;;;;;;;21.47;100.00;101095.38;5047037;28;20061;-72
2024/03/30 08:55:33;;;;;;;54.40;51.20;;;;;;;19.38;100.00;101085.09;5046260;28;20053;-71
2024/03/30 08:58:02;;;;;;;62.72;59.13;;;;;;;19.55;100.00;101076.09;5045425;28;20083;-71
2024/03/30 09:00:28;;;;;;;49.22;46.20;;;;;;;19.35;100.00;101076.72;5046617;28;20142;-71
2024/03/30 09:02:55;;;;;;;49.92;46.83;;;;;;;21.26;100.00;101078.28;5046724;28;20064;-70
2024/03/30 09:05:21;;;;;;;37.83;35.25;;;;;;;20.53;100.00;101079.19;5046793;28;20487;-71
2024/03/30 09:07:48;;;;;;;44.05;41.15;;;;;;;20.15;100.00;101077.59;5046115;28;20143;-71
2024/03/30 09:10:15;;;;;;;54.17;50.88;;;;;;;19.78;100.00;101075.75;5046798;28;21114;-71
2024/03/30 09:12:42;;;;;;;32.63;30.13;;;;;;;21.05;100.00;101078.25;5039453;28;20092;-72
2024/03/30 09:15:09;;;;;;;39.90;37.13;;;;;;;24.87;74.84;101073.72;5045683;28;20048;-72
2024/03/30 09:17:37;;;;;;;36.95;34.38;;;;;;;20.78;100.00;101073.06;5046434;28;20089;-71
2024/03/30 09:20:04;;;;;;;54.75;51.45;;;;;;;22.78;95.05;101072.91;5046469;28;20793;-71
2024/03/30 09:22:31;;;;;;;50.15;46.85;;;;;;;21.20;100.00;101066.66;5038645;28;20060;-72
2024/03/30 09:24:58;;;;;;;44.15;41.25;;;;;;;21.75;100.00;101064.28;5040269;28;20171;-72
2024/03/30 09:27:25;;;;;;;40.58;37.72;;;;;;;21.37;100.00;101063.75;5042603;28;20453;-72
2024/03/30 09:29:51;;;;;;;41.10;38.30;;;;;;;19.45;100.00;101058.78;5049264;28;20056;-71
2024/03/30 09:32:20;;;;;;;47.47;44.53;;;;;;;22.43;100.00;101061.16;5050324;28;20775;-72
2024/03/30 09:34:46;;;;;;;41.25;38.45;;;;;;;20.23;100.00;101055.53;5045628;28;20061;-71
2024/03/30 09:37:14;;;;;;;48.33;45.25;;;;;;;19.89;100.00;101058.59;5049797;28;20053;-71
2024/03/30 09:39:40;;;;;;;44.35;41.45;;;;;;;20.97;100.00;101056.38;5047424;28;20052;-73
2024/03/30 09:42:09;;;;;;;43.80;41.00;;;;;;;19.93;100.00;101058.06;5050898;28;20568;-72
2024/03/30 09:44:36;;;;;;;37.50;34.90;;;;;;;20.71;100.00;101042.81;5046249;28;20056;-72
2024/03/30 09:47:04;;;;;;;38.45;35.75;;;;;;;21.21;100.00;101037.75;5051555;28;20134;-71
2024/03/30 09:49:32;;;;;;;39.47;36.78;;;;;;;22.09;100.00;101044.75;5050723;28;20511;-72
2024/03/30 09:52:02;;;;;;;38.25;35.55;;;;;;;20.49;100.00;101036.78;5042409;28;20158;-72
2024/03/30 09:54:30;;;;;;;38.97;36.33;;;;;;;19.50;100.00;101043.72;5050909;28;20103;-72
2024/03/30 09:57:01;;;;;;;51.67;48.47;;;;;;;19.22;100.00;101038.38;5050712;28;20053;-71
2024/03/30 09:59:28;;;;;;;53.97;50.78;;;;;;;20.45;100.00;101036.47;5042479;28;20045;-71
2024/03/30 10:01:58;;;;;;;30.88;28.60;;;;;;;21.79;100.00;101030.22;5050692;28;20128;-73
2024/03/30 10:04:24;;;;;;;38.13;35.53;;;;;;;18.83;100.00;101026.94;5042046;28;20475;-71
2024/03/30 10:06:55;;;;;;;62.70;59.10;;;;;;;18.28;100.00;101034.09;5047861;28;20052;-71
2024/03/30 10:09:25;;;;;;;56.80;53.50;;;;;;;20.87;100.00;101015.84;5050336;28;20498;-71
2024/03/30 10:11:56;;;;;;;45.13;42.30;;;;;;;18.98;100.00;101026.31;5051097;28;20485;-71
2024/03/30 10:14:30;;;;;;;58.47;55.00;;;;;;;18.26;100.00;101038.91;5050844;28;20130;-71
2024/03/30 10:17:02;;;;;;;66.50;62.80;;;;;;;18.30;100.00;101029.25;5045826;28;20465;-72
2024/03/30 10:19:31;;;;;;;57.15;53.80;;;;;;;17.92;100.00;101027.41;5046801;28;20057;-72
2024/03/30 10:22:01;;;;;;;45.50;42.60;;;;;;;17.77;100.00;101022.63;5042135;28;20052;-71
2024/03/30 10:24:29;;;;;;;72.50;68.50;;;;;;;20.60;100.00;101016.88;5049827;28;20084;-71
2024/03/30 10:26:57;;;;;;;71.28;67.38;;;;;;;20.81;100.00;101021.22;5049926;28;20099;-71
2024/03/30 10:29:23;;;;;;;77.28;73.18;;;;;;;18.84;100.00;101014.31;5048944;28;20068;-70
2024/03/30 10:31:52;;;;;;;79.82;75.63;;;;;;;18.21;100.00;101014.63;5034397;28;20061;-71
2024/03/30 10:34:18;;;;;;;87.55;82.95;;;;;;;18.29;100.00;101011.50;5049275;28;20649;-71
2024/03/30 10:36:46;;;;;;;81.43;77.13;;;;;;;18.66;100.00;101005.47;5036537;28;20799;-72
2024/03/30 10:39:14;;;;;;;81.13;76.82;;;;;;;18.16;100.00;101003.03;5033198;28;20045;-71
2024/03/30 10:41:42;;;;;;;88.22;83.72;;;;;;;17.82;100.00;101003.91;5045996;28;20049;-72
2024/03/30 10:44:08;;;;;;;93.22;88.63;;;;;;;17.79;100.00;101007.09;5044944;28;20118;-71
2024/03/30 10:46:35;;;;;;;69.43;65.68;;;;;;;18.41;100.00;100992.56;5050259;28;20056;-71
2024/03/30 10:49:01;;;;;;;92.13;87.43;;;;;;;18.54;100.00;100992.16;5049913;28;20053;-71
2024/03/30 10:51:29;;;;;;;75.28;71.18;;;;;;;18.07;100.00;100992.69;5048513;28;20060;-71
2024/03/30 10:54:04;;;;;;;69.40;65.60;;;;;;;18.48;100.00;100984.28;5049883;28;20110;-72
2024/03/30 10:56:33;;;;;;;71.15;67.25;;;;;;;18.17;100.00;100986.63;5041512;28;20053;-72
2024/03/30 10:59:00;;;;;;;70.55;66.75;;;;;;;18.03;100.00;100978.13;5049882;28;20056;-72
2024/03/30 11:01:30;;;;;;;66.97;63.17;;;;;;;17.82;100.00;100986.97;5049567;28;20606;-72
2024/03/30 11:03:57;;;;;;;71.00;67.10;;;;;;;18.04;100.00;100976.25;5037666;28;20134;-71
2024/03/30 11:06:25;;;;;;;70.63;66.72;;;;;;;17.76;100.00;100977.16;5048653;28;20053;-71
2024/03/30 11:08:53;;;;;;;66.78;63.17;;;;;;;17.86;100.00;100963.94;5048799;28;20056;-71
2024/03/30 11:11:20;;;;;;;78.40;74.22;;;;;;;17.80;100.00;100962.22;5048197;28;20072;-72